Tambov, Russia
Current Conditions -  °F | °C
As of 2:00 PM on Friday 28 Nov 2014 (Local Time) from UUOO Reporting Station
Clear Clear  
Wind Chill: 21°   Ceiling: Unl
Heat Index: 30°   Visibility: 6mi
Dew Point:   Wind: 11mph
Humidity: 27%   Direction: 100°E
Pressure: 30.48"   Gusts: NA
Location:  52.73°N, 41.43°E
Report Text: UUOO 281100Z 10005MPS CAVOK M01/M18 Q1032 NOSIG RMK 12090070
Loading
Personal Weather Stations






























Interactive Weather Map New forecast layout! Learn more

10-Day Weather Forecast

Advertisements
Track Severe Weather on mobile